sensor_id;sensor_type;location;lat;lon;timestamp;noise_LAeq;noise_LA_min;noise_LA_max;noise_LA01;noise_LA95
49215;Laerm;45943;53.148;8.204;2023-06-10T00:01:37;40.92;37.51;44.23;;
49215;Laerm;45943;53.148;8.204;2023-06-10T00:04:03;41.04;37.05;44.09;;
49215;Laerm;45943;53.148;8.204;2023-06-10T00:06:30;50.06;37.29;72.03;;
49215;Laerm;45943;53.148;8.204;2023-06-10T00:09:04;43.85;36.54;61.27;;
49215;Laerm;45943;53.148;8.204;2023-06-10T00:11:33;41.76;37.29;65.22;;
49215;Laerm;45943;53.148;8.204;2023-06-10T00:13:59;40.76;35.96;43.89;;
49215;Laerm;45943;53.148;8.204;2023-06-10T00:16:26;40.76;36.54;44.46;;
49215;Laerm;45943;53.148;8.204;2023-06-10T00:18:52;49.30;35.29;70.45;;
49215;Laerm;45943;53.148;8.204;2023-06-10T00:21:18;41.03;36.80;52.93;;
49215;Laerm;45943;53.148;8.204;2023-06-10T00:23:44;47.38;36.54;67.03;;
49215;Laerm;45943;53.148;8.204;2023-06-10T00:26:10;48.76;37.29;66.71;;
49215;Laerm;45943;53.148;8.204;2023-06-10T00:28:36;40.55;37.05;43.13;;
49215;Laerm;45943;53.148;8.204;2023-06-10T00:31:02;40.39;36.80;43.19;;
49215;Laerm;45943;53.148;8.204;2023-06-10T00:33:30;40.82;37.05;47.16;;
49215;Laerm;45943;53.148;8.204;2023-06-10T00:35:56;41.43;37.51;44.18;;
49215;Laerm;45943;53.148;8.204;2023-06-10T00:38:22;42.03;38.65;45.18;;
49215;Laerm;45943;53.148;8.204;2023-06-10T00:40:49;60.80;39.55;73.65;;
49215;Laerm;45943;53.148;8.204;2023-06-10T00:43:15;53.31;37.72;79.62;;
49215;Laerm;45943;53.148;8.204;2023-06-10T00:45:41;47.61;37.29;73.16;;
49215;Laerm;45943;53.148;8.204;2023-06-10T00:48:07;40.66;36.80;45.43;;
49215;Laerm;45943;53.148;8.204;2023-06-10T00:50:33;40.94;35.64;45.43;;
49215;Laerm;45943;53.148;8.204;2023-06-10T00:53:00;41.49;37.72;45.99;;
49215;Laerm;45943;53.148;8.204;2023-06-10T00:55:27;42.36;35.64;65.05;;
49215;Laerm;45943;53.148;8.204;2023-06-10T00:57:53;41.60;36.46;58.81;;
49215;Laerm;45943;53.148;8.204;2023-06-10T01:00:19;41.78;36.26;65.45;;
49215;Laerm;45943;53.148;8.204;2023-06-10T01:02:46;42.08;36.54;64.26;;
49215;Laerm;45943;53.148;8.204;2023-06-10T01:05:12;40.40;36.26;42.95;;
49215;Laerm;45943;53.148;8.204;2023-06-10T01:10:29;41.22;37.51;53.16;;
49215;Laerm;45943;53.148;8.204;2023-06-10T01:13:00;40.62;36.80;43.31;;
49215;Laerm;45943;53.148;8.204;2023-06-10T01:15:31;40.51;35.96;43.84;;
49215;Laerm;45943;53.148;8.204;2023-06-10T01:18:00;40.45;36.54;42.69;;
49215;Laerm;45943;53.148;8.204;2023-06-10T01:20:29;40.78;36.80;46.26;;
49215;Laerm;45943;53.148;8.204;2023-06-10T01:22:59;41.00;37.72;52.48;;
49215;Laerm;45943;53.148;8.204;2023-06-10T01:25:27;40.51;37.05;43.84;;
49215;Laerm;45943;53.148;8.204;2023-06-10T01:27:58;40.59;36.26;44.63;;
49215;Laerm;45943;53.148;8.204;2023-06-10T01:30:30;40.30;35.64;42.95;;
49215;Laerm;45943;53.148;8.204;2023-06-10T01:32:59;40.92;37.51;53.74;;
49215;Laerm;45943;53.148;8.204;2023-06-10T01:35:28;40.63;36.80;42.82;;
49215;Laerm;45943;53.148;8.204;2023-06-10T01:37:56;40.95;37.05;44.50;;
49215;Laerm;45943;53.148;8.204;2023-06-10T01:40:25;40.42;36.80;43.74;;
49215;Laerm;45943;53.148;8.204;2023-06-10T01:42:51;40.64;36.80;49.43;;
49215;Laerm;45943;53.148;8.204;2023-06-10T01:45:18;41.00;37.51;45.14;;
49215;Laerm;45943;53.148;8.204;2023-06-10T01:47:44;40.68;37.05;44.71;;
49215;Laerm;45943;53.148;8.204;2023-06-10T01:50:10;40.83;37.92;43.69;;
49215;Laerm;45943;53.148;8.204;2023-06-10T01:52:37;43.95;38.12;59.99;;
49215;Laerm;45943;53.148;8.204;2023-06-10T01:55:04;46.60;37.92;66.18;;
49215;Laerm;45943;53.148;8.204;2023-06-10T01:57:30;47.49;38.30;63.20;;
49215;Laerm;45943;53.148;8.204;2023-06-10T01:59:56;47.63;37.51;64.46;;
49215;Laerm;45943;53.148;8.204;2023-06-10T02:02:22;47.41;38.97;62.59;;
49215;Laerm;45943;53.148;8.204;2023-06-10T02:04:48;46.21;39.41;60.92;;
49215;Laerm;45943;53.148;8.204;2023-06-10T02:07:14;49.67;39.41;64.31;;
49215;Laerm;45943;53.148;8.204;2023-06-10T02:09:40;50.05;39.41;63.95;;
49215;Laerm;45943;53.148;8.204;2023-06-10T02:12:06;48.05;39.27;63.06;;
49215;Laerm;45943;53.148;8.204;2023-06-10T02:14:33;47.74;40.06;62.77;;
49215;Laerm;45943;53.148;8.204;2023-06-10T02:16:59;47.92;40.06;63.77;;
49215;Laerm;45943;53.148;8.204;2023-06-10T02:19:25;50.40;39.12;68.35;;
49215;Laerm;45943;53.148;8.204;2023-06-10T02:21:52;56.49;38.97;76.51;;
49215;Laerm;45943;53.148;8.204;2023-06-10T02:24:18;51.33;39.68;71.61;;
49215;Laerm;45943;53.148;8.204;2023-06-10T02:26:44;46.99;39.55;60.58;;
49215;Laerm;45943;53.148;8.204;2023-06-10T02:29:10;47.02;39.41;63.49;;
49215;Laerm;45943;53.148;8.204;2023-06-10T02:31:36;46.92;39.12;63.12;;
49215;Laerm;45943;53.148;8.204;2023-06-10T02:34:03;45.14;38.97;58.70;;
49215;Laerm;45943;53.148;8.204;2023-06-10T02:36:29;42.86;38.65;54.48;;
49215;Laerm;45943;53.148;8.204;2023-06-10T02:38:55;44.18;38.65;61.44;;
49215;Laerm;45943;53.148;8.204;2023-06-10T02:41:21;43.57;38.12;57.01;;
49215;Laerm;45943;53.148;8.204;2023-06-10T02:43:47;43.06;38.12;64.11;;
49215;Laerm;45943;53.148;8.204;2023-06-10T02:46:13;42.29;38.30;56.79;;
49215;Laerm;45943;53.148;8.204;2023-06-10T02:48:45;47.63;38.65;68.45;;
49215;Laerm;45943;53.148;8.204;2023-06-10T02:51:12;43.05;38.81;51.80;;
49215;Laerm;45943;53.148;8.204;2023-06-10T02:53:38;42.54;37.92;50.87;;
49215;Laerm;45943;53.148;8.204;2023-06-10T02:56:04;42.21;38.12;51.62;;
49215;Laerm;45943;53.148;8.204;2023-06-10T02:58:30;41.60;37.92;48.25;;
49215;Laerm;45943;53.148;8.204;2023-06-10T03:00:56;43.24;38.30;56.66;;
49215;Laerm;45943;53.148;8.204;2023-06-10T03:03:22;48.86;37.92;67.47;;
49215;Laerm;45943;53.148;8.204;2023-06-10T03:05:48;47.26;38.65;64.03;;
49215;Laerm;45943;53.148;8.204;2023-06-10T03:08:14;43.37;39.68;56.28;;
49215;Laerm;45943;53.148;8.204;2023-06-10T03:10:40;50.53;38.97;66.65;;
49215;Laerm;45943;53.148;8.204;2023-06-10T03:13:06;48.28;39.27;63.72;;
49215;Laerm;45943;53.148;8.204;2023-06-10T03:15:32;48.43;38.81;68.66;;
49215;Laerm;45943;53.148;8.204;2023-06-10T03:17:59;50.98;38.48;67.25;;
49215;Laerm;45943;53.148;8.204;2023-06-10T03:20:26;55.20;38.65;82.47;;
49215;Laerm;45943;53.148;8.204;2023-06-10T03:22:53;44.19;38.97;58.39;;
49215;Laerm;45943;53.148;8.204;2023-06-10T03:25:19;50.95;38.81;67.10;;
49215;Laerm;45943;53.148;8.204;2023-06-10T03:27:46;52.60;38.48;73.46;;
49215;Laerm;45943;53.148;8.204;2023-06-10T03:30:13;53.71;39.55;66.67;;
49215;Laerm;45943;53.148;8.204;2023-06-10T03:32:39;62.19;39.81;74.22;;
49215;Laerm;45943;53.148;8.204;2023-06-10T03:35:07;45.76;39.94;57.53;;
49215;Laerm;45943;53.148;8.204;2023-06-10T03:37:33;43.33;39.41;57.61;;
49215;Laerm;45943;53.148;8.204;2023-06-10T03:39:59;53.73;39.55;71.40;;
49215;Laerm;45943;53.148;8.204;2023-06-10T03:42:25;47.32;38.65;65.67;;
49215;Laerm;45943;53.148;8.204;2023-06-10T03:44:51;42.93;38.48;58.40;;
49215;Laerm;45943;53.148;8.204;2023-06-10T03:47:17;42.07;37.29;51.76;;
49215;Laerm;45943;53.148;8.204;2023-06-10T03:49:43;46.68;38.30;64.12;;
49215;Laerm;45943;53.148;8.204;2023-06-10T03:52:09;46.67;38.81;63.39;;
49215;Laerm;45943;53.148;8.204;2023-06-10T03:54:35;43.93;38.12;70.98;;
49215;Laerm;45943;53.148;8.204;2023-06-10T03:57:02;42.72;39.27;56.38;;
49215;Laerm;45943;53.148;8.204;2023-06-10T03:59:28;46.77;38.65;65.47;;
49215;Laerm;45943;53.148;8.204;2023-06-10T04:01:54;46.92;38.81;66.57;;
49215;Laerm;45943;53.148;8.204;2023-06-10T04:04:21;42.16;38.81;54.59;;
49215;Laerm;45943;53.148;8.204;2023-06-10T04:06:47;47.92;38.65;64.53;;
49215;Laerm;45943;53.148;8.204;2023-06-10T04:09:14;47.79;38.81;66.37;;
49215;Laerm;45943;53.148;8.204;2023-06-10T04:11:41;42.71;38.48;59.48;;
49215;Laerm;45943;53.148;8.204;2023-06-10T04:14:08;49.63;38.97;69.15;;
49215;Laerm;45943;53.148;8.204;2023-06-10T04:16:34;57.40;38.81;80.83;;
49215;Laerm;45943;53.148;8.204;2023-06-10T04:19:01;49.93;38.81;68.60;;
49215;Laerm;45943;53.148;8.204;2023-06-10T04:21:27;49.64;39.12;66.12;;
49215;Laerm;45943;53.148;8.204;2023-06-10T04:23:53;55.96;39.27;72.71;;
49215;Laerm;45943;53.148;8.204;2023-06-10T04:26:19;50.07;38.97;70.05;;
49215;Laerm;45943;53.148;8.204;2023-06-10T04:28:45;42.66;39.55;53.28;;
49215;Laerm;45943;53.148;8.204;2023-06-10T04:31:11;42.64;39.55;56.22;;
49215;Laerm;45943;53.148;8.204;2023-06-10T04:33:37;48.56;38.65;67.36;;
49215;Laerm;45943;53.148;8.204;2023-06-10T04:36:03;47.03;39.12;65.65;;
49215;Laerm;45943;53.148;8.204;2023-06-10T04:38:29;52.47;39.68;72.20;;
49215;Laerm;45943;53.148;8.204;2023-06-10T04:40:56;54.28;39.68;72.42;;
49215;Laerm;45943;53.148;8.204;2023-06-10T04:43:22;51.77;39.68;68.65;;
49215;Laerm;45943;53.148;8.204;2023-06-10T04:45:48;42.35;39.47;50.45;;
49215;Laerm;45943;53.148;8.204;2023-06-10T04:48:14;53.68;38.81;79.94;;
49215;Laerm;45943;53.148;8.204;2023-06-10T04:50:40;64.95;40.06;89.74;;
49215;Laerm;45943;53.148;8.204;2023-06-10T04:53:06;55.28;38.97;70.05;;
49215;Laerm;45943;53.148;8.204;2023-06-10T04:55:33;48.73;40.06;65.72;;
49215;Laerm;45943;53.148;8.204;2023-06-10T04:58:00;44.66;39.55;67.26;;
49215;Laerm;45943;53.148;8.204;2023-06-10T05:00:26;49.95;39.12;66.55;;
49215;Laerm;45943;53.148;8.204;2023-06-10T05:02:52;50.92;40.30;66.49;;
49215;Laerm;45943;53.148;8.204;2023-06-10T05:05:18;50.99;40.41;67.10;;
49215;Laerm;45943;53.148;8.204;2023-06-10T05:07:44;51.72;39.94;67.15;;
49215;Laerm;45943;53.148;8.204;2023-06-10T05:10:10;51.01;40.52;70.22;;
49215;Laerm;45943;53.148;8.204;2023-06-10T05:12:38;44.96;39.55;66.51;;
49215;Laerm;45943;53.148;8.204;2023-06-10T05:15:06;51.34;39.41;69.55;;
49215;Laerm;45943;53.148;8.204;2023-06-10T05:17:32;56.22;39.68;81.95;;
49215;Laerm;45943;53.148;8.204;2023-06-10T05:19:58;54.32;40.06;67.51;;
49215;Laerm;45943;53.148;8.204;2023-06-10T05:22:24;49.80;40.06;64.74;;
49215;Laerm;45943;53.148;8.204;2023-06-10T05:24:50;59.27;39.12;87.56;;
49215;Laerm;45943;53.148;8.204;2023-06-10T05:27:19;49.37;39.94;65.80;;
49215;Laerm;45943;53.148;8.204;2023-06-10T05:29:45;52.03;39.68;67.27;;
49215;Laerm;45943;53.148;8.204;2023-06-10T05:32:11;51.54;39.94;65.60;;
49215;Laerm;45943;53.148;8.204;2023-06-10T05:34:37;53.63;39.55;75.65;;
49215;Laerm;45943;53.148;8.204;2023-06-10T05:37:03;47.90;39.27;63.69;;
49215;Laerm;45943;53.148;8.204;2023-06-10T05:39:29;49.42;39.68;65.38;;
49215;Laerm;45943;53.148;8.204;2023-06-10T05:41:55;50.47;39.27;69.41;;
49215;Laerm;45943;53.148;8.204;2023-06-10T05:44:24;50.02;39.94;64.46;;
49215;Laerm;45943;53.148;8.204;2023-06-10T05:46:50;49.98;39.47;65.73;;
49215;Laerm;45943;53.148;8.204;2023-06-10T05:49:16;48.88;38.97;62.49;;
49215;Laerm;45943;53.148;8.204;2023-06-10T05:51:42;48.56;38.65;65.07;;
49215;Laerm;45943;53.148;8.204;2023-06-10T05:54:08;50.89;38.65;65.79;;
49215;Laerm;45943;53.148;8.204;2023-06-10T05:56:34;54.35;38.65;68.87;;
49215;Laerm;45943;53.148;8.204;2023-06-10T05:59:00;49.62;38.62;67.15;;
49215;Laerm;45943;53.148;8.204;2023-06-10T06:01:26;50.70;39.41;65.15;;
49215;Laerm;45943;53.148;8.204;2023-06-10T06:03:52;50.22;39.81;66.74;;
49215;Laerm;45943;53.148;8.204;2023-06-10T06:06:18;51.94;38.65;65.55;;
49215;Laerm;45943;53.148;8.204;2023-06-10T06:08:46;53.08;38.30;69.41;;
49215;Laerm;45943;53.148;8.204;2023-06-10T06:11:12;50.36;39.55;68.35;;
49215;Laerm;45943;53.148;8.204;2023-06-10T06:13:39;53.15;39.27;66.62;;
49215;Laerm;45943;53.148;8.204;2023-06-10T06:16:05;50.96;39.27;64.10;;
49215;Laerm;45943;53.148;8.204;2023-06-10T06:18:31;51.81;38.97;65.96;;
49215;Laerm;45943;53.148;8.204;2023-06-10T06:20:57;43.52;39.12;58.79;;
49215;Laerm;45943;53.148;8.204;2023-06-10T06:23:23;68.43;39.94;84.23;;
49215;Laerm;45943;53.148;8.204;2023-06-10T06:25:49;50.69;39.07;65.86;;
49215;Laerm;45943;53.148;8.204;2023-06-10T06:28:15;47.95;39.12;62.44;;
49215;Laerm;45943;53.148;8.204;2023-06-10T06:30:41;53.02;39.27;66.52;;
49215;Laerm;45943;53.148;8.204;2023-06-10T06:33:07;52.96;39.41;65.44;;
49215;Laerm;45943;53.148;8.204;2023-06-10T06:35:33;43.76;39.27;57.61;;
49215;Laerm;45943;53.148;8.204;2023-06-10T06:37:59;43.02;38.81;59.72;;
49215;Laerm;45943;53.148;8.204;2023-06-10T06:40:25;57.03;39.81;76.15;;
49215;Laerm;45943;53.148;8.204;2023-06-10T06:42:51;50.50;40.41;64.54;;
49215;Laerm;45943;53.148;8.204;2023-06-10T06:45:17;47.54;39.81;60.62;;
49215;Laerm;45943;53.148;8.204;2023-06-10T06:47:43;50.70;39.55;66.43;;
49215;Laerm;45943;53.148;8.204;2023-06-10T06:50:09;51.25;39.12;70.88;;
49215;Laerm;45943;53.148;8.204;2023-06-10T06:52:35;50.73;39.27;63.90;;
49215;Laerm;45943;53.148;8.204;2023-06-10T06:55:01;46.57;39.27;61.07;;
49215;Laerm;45943;53.148;8.204;2023-06-10T06:57:27;49.83;39.55;63.39;;
49215;Laerm;45943;53.148;8.204;2023-06-10T06:59:53;48.24;39.41;64.33;;
49215;Laerm;45943;53.148;8.204;2023-06-10T07:02:20;47.66;38.97;65.01;;
49215;Laerm;45943;53.148;8.204;2023-06-10T07:04:46;52.32;40.73;70.54;;
49215;Laerm;45943;53.148;8.204;2023-06-10T07:07:14;48.98;40.30;63.81;;
49215;Laerm;45943;53.148;8.204;2023-06-10T07:09:40;50.25;38.97;69.70;;
49215;Laerm;45943;53.148;8.204;2023-06-10T07:12:07;48.19;40.18;62.78;;
49215;Laerm;45943;53.148;8.204;2023-06-10T07:14:33;47.55;39.27;64.54;;
49215;Laerm;45943;53.148;8.204;2023-06-10T07:16:59;54.50;40.06;71.72;;
49215;Laerm;45943;53.148;8.204;2023-06-10T07:19:25;59.91;40.52;71.32;;
49215;Laerm;45943;53.148;8.204;2023-06-10T07:21:51;53.71;40.93;65.23;;
49215;Laerm;45943;53.148;8.204;2023-06-10T07:24:17;52.96;40.06;66.88;;
49215;Laerm;45943;53.148;8.204;2023-06-10T07:26:43;53.73;39.41;67.72;;
49215;Laerm;45943;53.148;8.204;2023-06-10T07:29:09;53.19;38.97;68.64;;
49215;Laerm;45943;53.148;8.204;2023-06-10T07:31:35;64.87;39.68;91.22;;
49215;Laerm;45943;53.148;8.204;2023-06-10T07:34:01;51.09;39.68;70.03;;
49215;Laerm;45943;53.148;8.204;2023-06-10T07:36:27;50.46;40.18;67.25;;
49215;Laerm;45943;53.148;8.204;2023-06-10T07:38:54;54.60;39.41;71.13;;
49215;Laerm;45943;53.148;8.204;2023-06-10T07:41:23;48.60;39.68;66.50;;
49215;Laerm;45943;53.148;8.204;2023-06-10T07:43:48;47.63;38.97;66.65;;
49215;Laerm;45943;53.148;8.204;2023-06-10T07:46:23;50.28;39.55;71.37;;
49215;Laerm;45943;53.148;8.204;2023-06-10T07:48:51;48.72;39.12;62.32;;
49215;Laerm;45943;53.148;8.204;2023-06-10T07:51:17;50.62;39.41;67.20;;
49215;Laerm;45943;53.148;8.204;2023-06-10T07:53:43;48.56;39.27;65.14;;
49215;Laerm;45943;53.148;8.204;2023-06-10T07:56:09;47.19;39.27;60.09;;
49215;Laerm;45943;53.148;8.204;2023-06-10T07:58:35;50.50;40.63;61.79;;
49215;Laerm;45943;53.148;8.204;2023-06-10T08:01:01;60.52;41.39;79.25;;
49215;Laerm;45943;53.148;8.204;2023-06-10T08:03:27;46.40;39.12;60.23;;
49215;Laerm;45943;53.148;8.204;2023-06-10T08:05:53;51.74;38.48;64.04;;
49215;Laerm;45943;53.148;8.204;2023-06-10T08:08:19;47.86;38.81;66.77;;
49215;Laerm;45943;53.148;8.204;2023-06-10T08:10:45;49.84;38.97;71.10;;
49215;Laerm;45943;53.148;8.204;2023-06-10T08:13:11;54.50;37.51;74.60;;
49215;Laerm;45943;53.148;8.204;2023-06-10T08:15:37;52.84;37.92;68.72;;
49215;Laerm;45943;53.148;8.204;2023-06-10T08:18:03;49.61;38.81;65.20;;
49215;Laerm;45943;53.148;8.204;2023-06-10T08:20:29;56.68;39.41;72.66;;
49215;Laerm;45943;53.148;8.204;2023-06-10T08:22:55;54.37;42.76;67.45;;
49215;Laerm;45943;53.148;8.204;2023-06-10T08:25:21;53.98;39.55;70.49;;
49215;Laerm;45943;53.148;8.204;2023-06-10T08:27:50;49.90;39.27;66.83;;
49215;Laerm;45943;53.148;8.204;2023-06-10T08:30:17;47.82;39.27;62.33;;
49215;Laerm;45943;53.148;8.204;2023-06-10T08:32:43;50.24;38.81;62.44;;
49215;Laerm;45943;53.148;8.204;2023-06-10T08:35:10;47.65;38.48;60.15;;
49215;Laerm;45943;53.148;8.204;2023-06-10T08:37:36;48.16;40.41;62.19;;
49215;Laerm;45943;53.148;8.204;2023-06-10T08:40:02;57.87;39.94;72.80;;
49215;Laerm;45943;53.148;8.204;2023-06-10T08:45:02;57.17;40.18;88.46;;
49215;Laerm;45943;53.148;8.204;2023-06-10T08:47:30;56.87;39.55;86.06;;
49215;Laerm;45943;53.148;8.204;2023-06-10T08:50:02;55.35;40.30;81.19;;
49215;Laerm;45943;53.148;8.204;2023-06-10T08:52:35;56.53;39.12;79.17;;
49215;Laerm;45943;53.148;8.204;2023-06-10T08:55:36;53.49;41.31;70.58;;
49215;Laerm;45943;53.148;8.204;2023-06-10T08:58:06;48.97;39.41;63.75;;
49215;Laerm;45943;53.148;8.204;2023-06-10T09:00:34;49.70;39.41;64.07;;
49215;Laerm;45943;53.148;8.204;2023-06-10T09:03:00;54.12;40.06;68.09;;
49215;Laerm;45943;53.148;8.204;2023-06-10T09:05:28;55.60;39.81;81.04;;
49215;Laerm;45943;53.148;8.204;2023-06-10T09:07:56;56.26;39.27;84.71;;
49215;Laerm;45943;53.148;8.204;2023-06-10T09:10:23;60.62;39.12;83.15;;
49215;Laerm;45943;53.148;8.204;2023-06-10T09:12:49;51.14;39.55;66.68;;
49215;Laerm;45943;53.148;8.204;2023-06-10T09:15:15;54.23;39.55;68.91;;
49215;Laerm;45943;53.148;8.204;2023-06-10T09:17:43;51.59;38.81;67.10;;
49215;Laerm;45943;53.148;8.204;2023-06-10T09:20:12;54.17;38.97;67.65;;
49215;Laerm;45943;53.148;8.204;2023-06-10T09:22:38;56.43;40.18;69.19;;
49215;Laerm;45943;53.148;8.204;2023-06-10T09:25:12;63.78;40.52;86.04;;
49215;Laerm;45943;53.148;8.204;2023-06-10T09:27:49;49.85;39.81;67.47;;
49215;Laerm;45943;53.148;8.204;2023-06-10T09:30:30;51.30;38.81;66.88;;
49215;Laerm;45943;53.148;8.204;2023-06-10T09:32:58;50.62;39.27;67.38;;
49215;Laerm;45943;53.148;8.204;2023-06-10T09:35:26;51.68;39.81;66.23;;
49215;Laerm;45943;53.148;8.204;2023-06-10T09:37:54;51.82;40.18;67.06;;
49215;Laerm;45943;53.148;8.204;2023-06-10T09:40:21;55.89;39.41;69.11;;
49215;Laerm;45943;53.148;8.204;2023-06-10T09:42:55;53.94;39.94;66.91;;
49215;Laerm;45943;53.148;8.204;2023-06-10T09:45:22;52.30;39.12;66.53;;
49215;Laerm;45943;53.148;8.204;2023-06-10T09:47:52;54.51;40.17;75.57;;
49215;Laerm;45943;53.148;8.204;2023-06-10T09:50:19;53.46;40.83;67.81;;
49215;Laerm;45943;53.148;8.204;2023-06-10T09:52:46;47.35;39.55;62.76;;
49215;Laerm;45943;53.148;8.204;2023-06-10T09:55:13;52.62;39.68;66.39;;
49215;Laerm;45943;53.148;8.204;2023-06-10T09:57:40;49.48;41.22;66.50;;
49215;Laerm;45943;53.148;8.204;2023-06-10T10:00:11;52.40;39.68;68.08;;
49215;Laerm;45943;53.148;8.204;2023-06-10T10:02:51;53.37;40.18;70.29;;
49215;Laerm;45943;53.148;8.204;2023-06-10T10:05:24;54.38;41.03;68.42;;
49215;Laerm;45943;53.148;8.204;2023-06-10T10:07:59;52.87;40.06;64.78;;
49215;Laerm;45943;53.148;8.204;2023-06-10T10:10:26;53.04;39.59;68.37;;
49215;Laerm;45943;53.148;8.204;2023-06-10T10:12:55;54.72;39.81;70.87;;
49215;Laerm;45943;53.148;8.204;2023-06-10T10:15:29;51.56;39.68;66.29;;
49215;Laerm;45943;53.148;8.204;2023-06-10T10:18:03;54.21;40.93;70.90;;
49215;Laerm;45943;53.148;8.204;2023-06-10T10:20:33;48.12;39.41;63.57;;
49215;Laerm;45943;53.148;8.204;2023-06-10T10:23:04;55.00;40.30;73.95;;
49215;Laerm;45943;53.148;8.204;2023-06-10T10:25:35;56.39;40.18;69.04;;
49215;Laerm;45943;53.148;8.204;2023-06-10T10:28:12;52.24;39.55;75.19;;
49215;Laerm;45943;53.148;8.204;2023-06-10T10:30:54;52.36;40.73;69.81;;
49215;Laerm;45943;53.148;8.204;2023-06-10T10:34:01;51.48;40.63;65.66;;
49215;Laerm;45943;53.148;8.204;2023-06-10T10:36:28;52.83;39.12;75.79;;
49215;Laerm;45943;53.148;8.204;2023-06-10T10:38:54;53.26;39.83;69.73;;
49215;Laerm;45943;53.148;8.204;2023-06-10T10:41:21;55.90;39.68;72.26;;
49215;Laerm;45943;53.148;8.204;2023-06-10T10:43:49;55.09;40.18;74.15;;
49215;Laerm;45943;53.148;8.204;2023-06-10T10:46:17;57.92;39.68;79.14;;
49215;Laerm;45943;53.148;8.204;2023-06-10T10:48:44;49.11;39.94;66.13;;
49215;Laerm;45943;53.148;8.204;2023-06-10T10:51:11;53.05;39.81;68.15;;
49215;Laerm;45943;53.148;8.204;2023-06-10T10:53:38;50.46;38.65;68.85;;
49215;Laerm;45943;53.148;8.204;2023-06-10T10:56:05;50.31;38.65;66.67;;
49215;Laerm;45943;53.148;8.204;2023-06-10T10:58:32;49.31;40.06;61.59;;
49215;Laerm;45943;53.148;8.204;2023-06-10T11:00:58;51.04;42.69;64.97;;
49215;Laerm;45943;53.148;8.204;2023-06-10T11:03:28;49.65;42.35;65.35;;
49215;Laerm;45943;53.148;8.204;2023-06-10T11:05:58;53.37;39.27;69.95;;
49215;Laerm;45943;53.148;8.204;2023-06-10T11:10:59;47.56;39.55;65.22;;
49215;Laerm;45943;53.148;8.204;2023-06-10T11:13:26;55.54;41.22;70.82;;
49215;Laerm;45943;53.148;8.204;2023-06-10T11:15:57;52.70;40.41;67.95;;
49215;Laerm;45943;53.148;8.204;2023-06-10T11:18:28;54.05;40.52;70.13;;
49215;Laerm;45943;53.148;8.204;2023-06-10T11:20:56;53.77;39.81;68.97;;
49215;Laerm;45943;53.148;8.204;2023-06-10T11:31:19;52.77;40.06;70.49;;
49215;Laerm;45943;53.148;8.204;2023-06-10T11:33:57;52.37;38.65;69.29;;
49215;Laerm;45943;53.148;8.204;2023-06-10T11:36:25;49.07;38.65;65.63;;
49215;Laerm;45943;53.148;8.204;2023-06-10T11:38:59;53.73;39.81;74.25;;
49215;Laerm;45943;53.148;8.204;2023-06-10T11:41:26;54.79;39.81;71.90;;
49215;Laerm;45943;53.148;8.204;2023-06-10T11:43:59;50.22;38.48;69.25;;
49215;Laerm;45943;53.148;8.204;2023-06-10T11:46:26;56.80;39.68;73.99;;
49215;Laerm;45943;53.148;8.204;2023-06-10T11:48:54;55.16;40.06;70.21;;
49215;Laerm;45943;53.148;8.204;2023-06-10T11:51:21;50.24;40.18;65.57;;
49215;Laerm;45943;53.148;8.204;2023-06-10T11:53:48;49.13;38.97;66.92;;
49215;Laerm;45943;53.148;8.204;2023-06-10T11:56:20;50.58;39.55;66.56;;
49215;Laerm;45943;53.148;8.204;2023-06-10T11:58:55;52.46;39.27;68.77;;
49215;Laerm;45943;53.148;8.204;2023-06-10T12:01:24;53.82;38.78;67.24;;
49215;Laerm;45943;53.148;8.204;2023-06-10T12:04:17;50.33;38.97;69.86;;
49215;Laerm;45943;53.148;8.204;2023-06-10T12:06:48;50.08;39.81;68.92;;
49215;Laerm;45943;53.148;8.204;2023-06-10T12:09:19;52.83;40.52;68.94;;
49215;Laerm;45943;53.148;8.204;2023-06-10T12:11:49;50.32;38.12;66.16;;
49215;Laerm;45943;53.148;8.204;2023-06-10T12:14:15;51.74;38.97;69.48;;
49215;Laerm;45943;53.148;8.204;2023-06-10T12:16:48;53.82;40.18;67.11;;
49215;Laerm;45943;53.148;8.204;2023-06-10T12:19:14;53.33;38.65;73.03;;
49215;Laerm;45943;53.148;8.204;2023-06-10T12:21:40;53.10;37.72;71.22;;
49215;Laerm;45943;53.148;8.204;2023-06-10T12:24:07;57.14;40.18;73.09;;
49215;Laerm;45943;53.148;8.204;2023-06-10T12:31:57;52.14;37.92;65.72;;
49215;Laerm;45943;53.148;8.204;2023-06-10T12:34:38;52.90;38.97;66.09;;
49215;Laerm;45943;53.148;8.204;2023-06-10T12:37:10;60.80;40.18;75.03;;
49215;Laerm;45943;53.148;8.204;2023-06-10T12:39:41;61.81;44.63;75.10;;
49215;Laerm;45943;53.148;8.204;2023-06-10T12:42:12;53.90;39.12;70.40;;
49215;Laerm;45943;53.148;8.204;2023-06-10T12:44:39;52.43;39.55;68.29;;
49215;Laerm;45943;53.148;8.204;2023-06-10T12:47:12;49.56;38.12;71.37;;
49215;Laerm;45943;53.148;8.204;2023-06-10T12:49:38;50.60;38.12;68.76;;
49215;Laerm;45943;53.148;8.204;2023-06-10T12:52:05;51.55;40.30;66.21;;
49215;Laerm;45943;53.148;8.204;2023-06-10T12:54:31;51.75;39.81;66.69;;
49215;Laerm;45943;53.148;8.204;2023-06-10T12:56:58;49.47;38.48;62.26;;
49215;Laerm;45943;53.148;8.204;2023-06-10T12:59:24;52.40;38.81;69.23;;
49215;Laerm;45943;53.148;8.204;2023-06-10T13:01:51;51.72;39.41;66.61;;
49215;Laerm;45943;53.148;8.204;2023-06-10T13:04:17;49.63;38.12;65.06;;
49215;Laerm;45943;53.148;8.204;2023-06-10T13:06:44;50.57;38.30;66.92;;
49215;Laerm;45943;53.148;8.204;2023-06-10T13:09:10;51.99;39.55;66.29;;
49215;Laerm;45943;53.148;8.204;2023-06-10T13:11:36;54.61;40.06;68.05;;
49215;Laerm;45943;53.148;8.204;2023-06-10T13:14:03;54.54;39.55;69.38;;
49215;Laerm;45943;53.148;8.204;2023-06-10T13:16:32;55.81;40.30;70.62;;
49215;Laerm;45943;53.148;8.204;2023-06-10T13:18:59;53.16;38.48;69.93;;
49215;Laerm;45943;53.148;8.204;2023-06-10T13:21:26;52.89;37.05;67.80;;
49215;Laerm;45943;53.148;8.204;2023-06-10T13:23:52;50.20;39.41;67.09;;
49215;Laerm;45943;53.148;8.204;2023-06-10T13:26:18;51.30;39.27;69.65;;
49215;Laerm;45943;53.148;8.204;2023-06-10T13:28:44;49.47;37.92;65.52;;
49215;Laerm;45943;53.148;8.204;2023-06-10T13:31:10;51.90;38.97;70.63;;
49215;Laerm;45943;53.148;8.204;2023-06-10T13:33:37;50.56;39.27;66.01;;
49215;Laerm;45943;53.148;8.204;2023-06-10T13:36:03;49.00;38.65;64.33;;
49215;Laerm;45943;53.148;8.204;2023-06-10T13:38:29;53.78;39.68;68.67;;
49215;Laerm;45943;53.148;8.204;2023-06-10T13:40:55;55.48;39.55;70.36;;
49215;Laerm;45943;53.148;8.204;2023-06-10T13:43:21;52.21;38.65;67.26;;
49215;Laerm;45943;53.148;8.204;2023-06-10T13:45:47;51.12;38.81;68.55;;
49215;Laerm;45943;53.148;8.204;2023-06-10T13:48:13;49.00;39.12;66.66;;
49215;Laerm;45943;53.148;8.204;2023-06-10T13:50:39;48.49;38.81;63.97;;
49215;Laerm;45943;53.148;8.204;2023-06-10T13:53:05;54.57;39.55;68.59;;
49215;Laerm;45943;53.148;8.204;2023-06-10T13:55:31;53.05;38.97;67.71;;
49215;Laerm;45943;53.148;8.204;2023-06-10T13:57:57;53.59;39.81;66.26;;
49215;Laerm;45943;53.148;8.204;2023-06-10T14:00:23;53.00;39.41;62.13;;
49215;Laerm;45943;53.148;8.204;2023-06-10T14:02:53;53.29;40.41;68.12;;
49215;Laerm;45943;53.148;8.204;2023-06-10T14:05:19;49.77;38.97;67.48;;
49215;Laerm;45943;53.148;8.204;2023-06-10T14:07:45;51.26;38.81;67.56;;